createdAt,value
2022-10-14T00:00:16.971Z,110.38
2022-10-14T00:01:24.695Z,101.28
2022-10-14T00:02:27.745Z,100.38
2022-10-14T00:03:32.426Z,80.38
2022-10-14T00:04:35.326Z,96.13
2022-10-14T00:05:42.492Z,78.90
2022-10-14T00:06:46.242Z,95.10
2022-10-14T00:07:51.587Z,106.95
2022-10-14T00:08:54.937Z,94.13
2022-10-14T00:09:58.944Z,101.45
2022-10-14T00:11:05.837Z,94.13
2022-10-14T00:12:09.857Z,94.60
2022-10-14T00:13:12.796Z,92.47
2022-10-14T00:14:19.162Z,92.63
2022-10-14T00:15:25.615Z,87.75
2022-10-14T00:16:32.495Z,94.95
2022-10-14T00:17:35.918Z,90.25
2022-10-14T00:18:39.983Z,94.90
2022-10-14T00:19:43.446Z,89.90
2022-10-14T00:20:55.939Z,90.95
2022-10-14T00:21:58.847Z,95.90
2022-10-14T00:23:03.117Z,85.70
2022-10-14T00:24:06.760Z,80.50
2022-10-14T00:25:11.057Z,80.60
2022-10-14T00:26:19.774Z,78.70
2022-10-14T00:27:23.935Z,86.45
2022-10-14T00:28:27.273Z,64.95
2022-10-14T00:29:31.370Z,62.03
2022-10-14T00:30:34.711Z,81.18
2022-10-14T00:31:41.817Z,79.22
2022-10-14T00:32:44.774Z,59.15
2022-10-14T00:33:49.104Z,74.25
2022-10-14T00:34:52.057Z,85.93
2022-10-14T00:35:57.335Z,63.25
2022-10-14T00:37:06.281Z,60.95
2022-10-14T00:38:10.517Z,72.72
2022-10-14T00:39:13.467Z,75.78
2022-10-14T00:40:17.506Z,82.53
2022-10-14T00:41:25.306Z,77.95
2022-10-14T00:42:29.347Z,76.43
2022-10-14T00:43:52.414Z,63.08
2022-10-14T00:45:14.897Z,69.95
2022-10-14T00:46:17.915Z,64.95
2022-10-14T00:47:23.608Z,64.70
2022-10-14T00:48:27.090Z,78.20
2022-10-14T00:49:35.098Z,70.95
2022-10-14T00:50:39.746Z,64.72
2022-10-14T00:51:45.951Z,69.68
2022-10-14T00:52:48.940Z,68.05
2022-10-14T00:53:53.098Z,69.80
2022-10-14T00:54:58.874Z,84.35
2022-10-14T00:56:02.885Z,81.55
2022-10-14T00:57:06.422Z,84.93
2022-10-14T00:58:10.906Z,88.15
2022-10-14T00:59:15.549Z,109.63
2022-10-14T01:00:21.249Z,100.53
2022-10-14T01:01:24.287Z,94.43
2022-10-14T01:02:30.935Z,92.43
2022-10-14T01:03:34.328Z,78.65
2022-10-14T01:04:40.596Z,80.63
2022-10-14T01:05:49.511Z,77.43
2022-10-14T01:06:58.923Z,75.72
2022-10-14T01:08:07.600Z,76.88
2022-10-14T01:09:17.112Z,82.50
2022-10-14T01:10:25.519Z,69.88
2022-10-14T01:11:35.616Z,73.95
2022-10-14T01:12:53.176Z,73.57
2022-10-14T01:14:05.127Z,76.47
2022-10-14T01:15:15.064Z,77.30
2022-10-14T01:16:23.204Z,64.80
2022-10-14T01:17:38.595Z,66.00
2022-10-14T01:18:58.468Z,62.50
2022-10-14T01:20:20.454Z,65.63
2022-10-14T01:21:29.066Z,61.67
2022-10-14T01:22:35.981Z,62.40
2022-10-14T01:24:20.249Z,64.07
2022-10-14T01:25:28.946Z,63.25
2022-10-14T01:26:54.767Z,58.92
2022-10-14T01:28:21.122Z,66.95
2022-10-14T01:30:02.519Z,63.70
2022-10-14T01:31:10.687Z,57.75
2022-10-14T01:32:16.738Z,59.42
2022-10-14T01:33:24.198Z,60.42
2022-10-14T01:34:32.403Z,54.45
2022-10-14T01:35:43.885Z,63.28
2022-10-14T01:36:50.981Z,63.13
2022-10-14T01:37:58.007Z,64.97
2022-10-14T01:39:03.356Z,66.40
2022-10-14T01:40:12.694Z,69.00
2022-10-14T01:41:18.652Z,75.78
2022-10-14T01:42:25.514Z,65.70
2022-10-14T01:43:28.936Z,73.97
2022-10-14T01:44:34.236Z,70.57
2022-10-14T01:45:38.078Z,74.45
2022-10-14T01:46:45.216Z,75.00
2022-10-14T01:47:50.017Z,74.18
2022-10-14T01:48:56.191Z,71.60
2022-10-14T01:50:02.475Z,73.50
2022-10-14T01:51:09.157Z,80.50
2022-10-14T01:52:16.096Z,76.95
2022-10-14T01:53:23.086Z,92.75
2022-10-14T01:54:30.779Z,81.30
2022-10-14T01:55:37.246Z,74.15
2022-10-14T01:56:42.258Z,73.70
2022-10-14T01:57:47.532Z,79.25
2022-10-14T01:58:53.306Z,74.40
2022-10-14T01:59:57.915Z,82.90
2022-10-14T02:01:03.358Z,70.45
2022-10-14T02:02:08.937Z,79.70
2022-10-14T02:03:12.535Z,85.85
2022-10-14T02:04:18.373Z,78.40
2022-10-14T02:05:25.879Z,72.05
2022-10-14T02:06:33.827Z,71.00
2022-10-14T02:07:40.237Z,86.10
2022-10-14T02:08:59.883Z,81.45
2022-10-14T02:10:08.103Z,78.78
2022-10-14T02:11:14.648Z,61.15
2022-10-14T02:12:26.687Z,49.90
2022-10-14T02:13:41.579Z,65.22
2022-10-14T02:14:51.338Z,64.15
2022-10-14T02:16:02.437Z,66.68
2022-10-14T02:17:09.856Z,70.35
2022-10-14T02:18:18.168Z,69.90
2022-10-14T02:19:26.936Z,75.70
2022-10-14T02:20:34.066Z,71.95
2022-10-14T02:21:46.404Z,49.35
2022-10-14T02:22:56.095Z,56.33
2022-10-14T02:24:04.536Z,64.45
2022-10-14T02:25:13.654Z,56.97
2022-10-14T02:26:17.173Z,58.53
2022-10-14T02:27:22.079Z,64.82
2022-10-14T02:28:26.754Z,60.05
2022-10-14T02:29:32.356Z,65.95
2022-10-14T02:30:37.824Z,70.75
2022-10-14T02:31:42.735Z,58.05
2022-10-14T02:32:51.295Z,53.30
2022-10-14T02:33:58.105Z,56.50
2022-10-14T02:35:01.837Z,54.67
2022-10-14T02:36:07.675Z,53.10
2022-10-14T02:37:12.514Z,57.67
2022-10-14T02:38:16.809Z,58.53
2022-10-14T02:39:22.906Z,59.15
2022-10-14T02:40:30.499Z,53.08
2022-10-14T02:41:35.589Z,57.08
2022-10-14T02:42:39.665Z,46.40
2022-10-14T02:43:42.529Z,49.75
2022-10-14T02:44:54.525Z,52.28
2022-10-14T02:45:58.217Z,51.53
2022-10-14T02:47:02.748Z,52.63
2022-10-14T02:48:09.076Z,57.10
2022-10-14T02:49:14.608Z,50.17
2022-10-14T02:50:20.120Z,53.15
2022-10-14T02:51:24.142Z,53.40
2022-10-14T02:52:27.126Z,49.05
2022-10-14T02:53:31.334Z,43.47
2022-10-14T02:54:35.158Z,52.00
2022-10-14T02:55:39.706Z,52.38
2022-10-14T02:56:42.865Z,53.95
2022-10-14T02:57:46.866Z,57.28
2022-10-14T02:58:49.973Z,55.30
2022-10-14T02:59:54.317Z,48.00
2022-10-14T03:01:00.410Z,46.78
2022-10-14T03:02:05.358Z,47.92
2022-10-14T03:03:10.327Z,47.40
2022-10-14T03:04:15.796Z,53.08
2022-10-14T03:05:19.758Z,45.22
2022-10-14T03:06:24.058Z,48.47
2022-10-14T03:07:27.143Z,52.03
2022-10-14T03:08:33.406Z,49.30
2022-10-14T03:09:38.886Z,79.47
2022-10-14T03:10:48.524Z,124.47
2022-10-14T03:11:52.198Z,82.18
2022-10-14T03:12:57.985Z,56.72
2022-10-14T03:14:09.546Z,52.70
2022-10-14T03:15:13.935Z,52.70
2022-10-14T03:16:16.926Z,44.10
2022-10-14T03:17:22.906Z,45.53
2022-10-14T03:18:29.449Z,50.00
2022-10-14T03:19:39.645Z,47.90
2022-10-14T03:20:44.727Z,45.00
2022-10-14T03:21:50.355Z,47.83
2022-10-14T03:22:55.917Z,45.97
2022-10-14T03:24:01.863Z,46.50
2022-10-14T03:25:10.375Z,44.08
2022-10-14T03:26:30.263Z,43.95
2022-10-14T03:27:33.423Z,45.20
2022-10-14T03:28:42.991Z,48.13
2022-10-14T03:29:53.398Z,47.55
2022-10-14T03:31:00.827Z,43.80
2022-10-14T03:32:23.680Z,48.22
2022-10-14T03:33:46.890Z,51.28
2022-10-14T03:34:54.987Z,44.47
2022-10-14T03:36:00.464Z,41.78
2022-10-14T03:37:18.492Z,47.97
2022-10-14T03:38:26.226Z,59.78
2022-10-14T03:39:30.796Z,68.03
2022-10-14T03:40:39.534Z,52.10
2022-10-14T03:41:50.446Z,51.47
2022-10-14T03:43:00.042Z,58.65
2022-10-14T03:44:09.936Z,61.95
2022-10-14T03:45:15.089Z,56.45
2022-10-14T03:46:19.165Z,60.95
2022-10-14T03:47:22.156Z,61.55
2022-10-14T03:48:26.117Z,59.58
2022-10-14T03:49:35.125Z,57.95
2022-10-14T03:50:48.770Z,62.83
2022-10-14T03:51:54.178Z,51.35
2022-10-14T03:53:01.806Z,54.72
2022-10-14T03:54:10.966Z,53.25
2022-10-14T03:55:15.186Z,56.25
2022-10-14T03:56:19.958Z,52.88
2022-10-14T03:57:24.257Z,53.33
2022-10-14T03:58:30.719Z,56.67
2022-10-14T03:59:39.586Z,53.00
2022-10-14T04:00:43.104Z,57.80
2022-10-14T04:01:59.741Z,64.65
2022-10-14T04:03:02.851Z,73.50
2022-10-14T04:04:14.794Z,98.35
2022-10-14T04:05:19.316Z,90.95
2022-10-14T04:06:25.816Z,94.85
2022-10-14T04:07:32.936Z,80.05
2022-10-14T04:08:37.323Z,76.25
2022-10-14T04:09:54.430Z,67.78
2022-10-14T04:10:58.914Z,69.57
2022-10-14T04:12:06.625Z,91.00
2022-10-14T04:13:27.536Z,77.82
2022-10-14T04:14:30.786Z,68.22
2022-10-14T04:15:37.366Z,59.63
2022-10-14T04:16:52.598Z,40.38
2022-10-14T04:17:56.543Z,43.50
2022-10-14T04:19:00.650Z,44.53
2022-10-14T04:20:04.016Z,50.20
2022-10-14T04:21:12.529Z,56.45
2022-10-14T04:22:19.722Z,53.25
2022-10-14T04:23:27.546Z,52.22
2022-10-14T04:24:37.064Z,50.10
2022-10-14T04:25:40.276Z,45.83
2022-10-14T04:26:45.134Z,50.53
2022-10-14T04:27:53.929Z,61.33
2022-10-14T04:29:00.521Z,54.95
2022-10-14T04:30:13.664Z,47.15
2022-10-14T04:31:24.617Z,39.25
2022-10-14T04:32:34.128Z,45.25
2022-10-14T04:33:37.486Z,40.60
2022-10-14T04:34:50.665Z,43.08
2022-10-14T04:35:59.639Z,47.17
2022-10-14T04:37:10.595Z,42.42
2022-10-14T04:38:23.473Z,52.88
2022-10-14T04:39:33.174Z,38.65
2022-10-14T04:40:36.284Z,38.55
2022-10-14T04:41:40.280Z,34.08
2022-10-14T04:42:43.426Z,44.75
2022-10-14T04:43:56.904Z,42.65
2022-10-14T04:45:16.453Z,42.40
2022-10-14T04:46:25.648Z,43.70
2022-10-14T04:47:29.996Z,52.63
2022-10-14T04:48:37.215Z,56.55
2022-10-14T04:49:42.168Z,51.72
2022-10-14T04:50:52.054Z,55.60
2022-10-14T04:52:10.978Z,46.38
2022-10-14T04:53:29.256Z,49.35
2022-10-14T04:55:03.558Z,54.78
2022-10-14T04:56:14.773Z,40.15
2022-10-14T04:57:28.030Z,36.72
2022-10-14T04:58:32.404Z,41.60
2022-10-14T04:59:35.449Z,45.88
2022-10-14T05:00:57.847Z,38.20
2022-10-14T05:02:11.059Z,40.58
2022-10-14T05:03:32.505Z,47.08
2022-10-14T05:04:35.815Z,58.63
2022-10-14T05:05:40.258Z,46.88
2022-10-14T05:06:43.187Z,38.72
2022-10-14T05:07:51.677Z,46.17
2022-10-14T05:09:09.117Z,56.55
2022-10-14T05:10:12.361Z,50.83
2022-10-14T05:11:19.316Z,58.28
2022-10-14T05:12:27.814Z,56.08
2022-10-14T05:13:36.487Z,42.95
2022-10-14T05:14:43.924Z,44.80
2022-10-14T05:15:54.566Z,45.95
2022-10-14T05:16:58.647Z,42.25
2022-10-14T05:18:06.806Z,44.25
2022-10-14T05:19:40.137Z,41.35
2022-10-14T05:20:43.444Z,46.75
2022-10-14T05:21:47.534Z,45.95
2022-10-14T05:22:57.456Z,46.13
2022-10-14T05:24:02.013Z,51.42
2022-10-14T05:25:09.256Z,49.78
2022-10-14T05:26:14.378Z,56.50
2022-10-14T05:27:18.643Z,52.47
2022-10-14T05:28:23.737Z,57.42
2022-10-14T05:29:28.015Z,62.80
2022-10-14T05:30:34.880Z,60.30
2022-10-14T05:31:42.344Z,56.70
2022-10-14T05:33:12.577Z,50.75
2022-10-14T05:34:17.586Z,52.63
2022-10-14T05:35:46.255Z,52.13
2022-10-14T05:36:46.612Z,48.33
2022-10-14T05:38:00.724Z,48.50
2022-10-14T05:39:10.364Z,50.33
2022-10-14T05:40:14.208Z,44.45
2022-10-14T05:41:18.293Z,42.05
2022-10-14T05:42:21.907Z,39.90
2022-10-14T05:43:32.689Z,43.10
2022-10-14T05:44:37.883Z,36.00
2022-10-14T05:45:42.016Z,43.13
2022-10-14T05:46:44.995Z,44.70
2022-10-14T05:47:49.146Z,46.90
2022-10-14T05:48:54.266Z,46.80
2022-10-14T05:49:58.917Z,47.20
2022-10-14T05:51:03.579Z,47.22
2022-10-14T05:52:10.446Z,48.65
2022-10-14T05:53:14.761Z,47.45
2022-10-14T05:54:22.517Z,57.75
2022-10-14T05:55:28.386Z,44.63
2022-10-14T05:56:35.672Z,49.65
2022-10-14T05:57:38.657Z,49.85
2022-10-14T05:58:43.187Z,39.80
2022-10-14T05:59:46.407Z,43.92
2022-10-14T06:00:51.767Z,43.42
2022-10-14T06:01:55.765Z,40.47
2022-10-14T06:03:01.964Z,41.75
2022-10-14T06:04:05.564Z,43.88
2022-10-14T06:05:09.907Z,50.90
2022-10-14T06:06:14.377Z,50.83
2022-10-14T06:07:19.325Z,49.38
2022-10-14T06:08:24.150Z,45.72
2022-10-14T06:09:28.357Z,51.58
2022-10-14T06:10:31.277Z,52.15
2022-10-14T06:11:36.554Z,50.50
2022-10-14T06:12:39.673Z,46.60
2022-10-14T06:13:43.718Z,44.50
2022-10-14T06:14:46.687Z,44.55
2022-10-14T06:15:51.096Z,47.60
2022-10-14T06:16:54.017Z,43.58
2022-10-14T06:17:58.201Z,47.17
2022-10-14T06:19:02.516Z,44.75
2022-10-14T06:20:07.173Z,42.35
2022-10-14T06:21:10.456Z,44.60
2022-10-14T06:22:14.407Z,40.90
2022-10-14T06:23:17.368Z,39.72
2022-10-14T06:24:22.924Z,39.08
2022-10-14T06:25:26.015Z,45.67
2022-10-14T06:26:29.946Z,45.05
2022-10-14T06:27:32.893Z,65.05
2022-10-14T06:28:37.057Z,56.95
2022-10-14T06:29:40.156Z,58.75
2022-10-14T06:30:44.163Z,51.78
2022-10-14T06:31:48.132Z,39.78
2022-10-14T06:32:53.946Z,44.58
2022-10-14T06:33:58.126Z,41.33
2022-10-14T06:35:01.033Z,43.65
2022-10-14T06:36:05.891Z,45.53
2022-10-14T06:37:09.854Z,46.53
2022-10-14T06:38:12.816Z,41.55
2022-10-14T06:39:16.966Z,39.00
2022-10-14T06:40:21.423Z,37.78
2022-10-14T06:41:26.117Z,41.72
2022-10-14T06:42:29.037Z,42.08
2022-10-14T06:43:36.508Z,37.70
2022-10-14T06:44:40.483Z,39.33
2022-10-14T06:45:43.337Z,36.33
2022-10-14T06:46:47.386Z,34.15
2022-10-14T06:47:50.435Z,41.85
2022-10-14T06:48:54.366Z,41.97
2022-10-14T06:49:58.387Z,42.42
2022-10-14T06:51:01.928Z,42.00
2022-10-14T06:52:06.323Z,38.45
2022-10-14T06:53:09.300Z,43.45
2022-10-14T06:54:13.226Z,41.03
2022-10-14T06:55:16.466Z,40.95
2022-10-14T06:56:21.783Z,48.38
2022-10-14T06:57:24.713Z,44.35
2022-10-14T06:58:28.707Z,42.30
2022-10-14T06:59:31.596Z,48.50
2022-10-14T07:00:35.652Z,48.10
2022-10-14T07:01:39.487Z,44.03
2022-10-14T07:02:44.467Z,49.67
2022-10-14T07:03:47.445Z,48.50
2022-10-14T07:04:51.423Z,48.20
2022-10-14T07:05:54.351Z,49.75
2022-10-14T07:06:59.027Z,50.83
2022-10-14T07:08:03.018Z,53.63
2022-10-14T07:09:06.034Z,47.33
2022-10-14T07:10:10.757Z,49.05
2022-10-14T07:11:14.036Z,46.28
2022-10-14T07:12:19.787Z,47.47
2022-10-14T07:13:22.847Z,48.72
2022-10-14T07:14:26.838Z,43.80
2022-10-14T07:15:33.836Z,44.20
2022-10-14T07:16:40.355Z,47.63
2022-10-14T07:17:43.364Z,40.95
2022-10-14T07:18:47.325Z,38.85
2022-10-14T07:19:50.321Z,38.55
2022-10-14T07:20:54.345Z,40.63
2022-10-14T07:21:57.241Z,39.58
2022-10-14T07:23:01.286Z,34.92
2022-10-14T07:24:04.566Z,37.53
2022-10-14T07:25:09.734Z,38.05
2022-10-14T07:26:13.673Z,31.45
2022-10-14T07:27:18.818Z,25.40
2022-10-14T07:28:23.091Z,33.15
2022-10-14T07:29:26.104Z,32.03
2022-10-14T07:30:30.246Z,31.52
2022-10-14T07:31:34.327Z,28.10
2022-10-14T07:32:37.456Z,29.55
2022-10-14T07:33:41.916Z,28.02
2022-10-14T07:34:45.917Z,26.50
2022-10-14T07:35:48.965Z,23.60
2022-10-14T07:36:52.966Z,28.00
2022-10-14T07:37:56.216Z,24.10
2022-10-14T07:39:01.315Z,25.30
2022-10-14T07:40:05.296Z,23.48
2022-10-14T07:41:17.104Z,24.25
2022-10-14T07:42:22.592Z,24.98
2022-10-14T07:43:25.524Z,24.20
2022-10-14T07:44:29.548Z,25.58
2022-10-14T07:45:36.094Z,26.77
2022-10-14T07:46:42.957Z,21.33
2022-10-14T07:47:49.648Z,27.63
2022-10-14T07:48:57.158Z,23.10
2022-10-14T07:50:02.010Z,21.77
2022-10-14T07:51:05.720Z,19.38
2022-10-14T07:52:09.744Z,24.65
2022-10-14T07:53:12.646Z,21.02
2022-10-14T07:54:18.577Z,19.33
2022-10-14T07:55:21.581Z,24.10
2022-10-14T07:56:25.727Z,21.90
2022-10-14T07:57:31.117Z,21.63
2022-10-14T07:58:34.246Z,23.38
2022-10-14T07:59:38.204Z,22.25
2022-10-14T08:00:41.135Z,22.27
2022-10-14T08:01:45.202Z,17.70
2022-10-14T08:02:48.169Z,17.80
2022-10-14T08:03:52.246Z,22.00
2022-10-14T08:05:13.120Z,23.58
2022-10-14T08:06:21.242Z,22.38
2022-10-14T08:07:25.598Z,20.88
2022-10-14T08:08:30.706Z,22.38
2022-10-14T08:09:36.184Z,24.00
2022-10-14T08:10:40.973Z,26.40
2022-10-14T08:11:45.914Z,18.83
2022-10-14T08:12:51.315Z,21.20
2022-10-14T08:13:55.650Z,17.50
2022-10-14T08:14:58.551Z,18.88
2022-10-14T08:16:02.516Z,20.48
2022-10-14T08:17:06.634Z,20.30
2022-10-14T08:18:11.162Z,19.95
2022-10-14T08:19:15.316Z,19.95
2022-10-14T08:20:18.514Z,20.10
2022-10-14T08:21:22.887Z,19.08
2022-10-14T08:22:27.362Z,18.92
2022-10-14T08:23:30.884Z,23.65
2022-10-14T08:24:34.876Z,24.98
2022-10-14T08:25:38.386Z,26.85
2022-10-14T08:26:44.358Z,25.35
2022-10-14T08:27:51.464Z,20.15
2022-10-14T08:28:55.468Z,18.73
2022-10-14T08:29:58.507Z,18.40
2022-10-14T08:31:02.528Z,21.88
2022-10-14T08:32:06.773Z,21.40
2022-10-14T08:33:09.838Z,21.20
2022-10-14T08:34:13.861Z,23.50
2022-10-14T08:35:16.879Z,46.65
2022-10-14T08:36:21.476Z,33.53
2022-10-14T08:37:25.484Z,24.15
2022-10-14T08:38:29.287Z,20.63
2022-10-14T08:39:33.304Z,23.55
2022-10-14T08:40:53.370Z,21.77
2022-10-14T08:42:22.196Z,22.48
2022-10-14T08:43:32.085Z,25.42
2022-10-14T08:44:41.467Z,25.83
2022-10-14T08:45:49.131Z,21.67
2022-10-14T08:46:54.074Z,20.90
2022-10-14T08:47:58.626Z,31.30
2022-10-14T08:49:04.886Z,25.73
2022-10-14T08:50:20.026Z,24.05
2022-10-14T08:51:23.266Z,25.52
2022-10-14T08:52:34.942Z,22.10
2022-10-14T08:53:44.785Z,24.42
2022-10-14T08:54:50.477Z,29.00
2022-10-14T08:55:56.436Z,26.48
2022-10-14T08:56:59.755Z,27.83
2022-10-14T08:58:11.332Z,25.98
2022-10-14T08:59:17.572Z,24.02
2022-10-14T09:00:22.167Z,26.48
2022-10-14T09:01:29.128Z,26.67
2022-10-14T09:02:39.673Z,20.83
2022-10-14T09:03:42.979Z,23.45
2022-10-14T09:04:47.045Z,22.85
2022-10-14T09:05:58.001Z,29.10
2022-10-14T09:07:02.038Z,23.85
2022-10-14T09:08:08.369Z,25.60
2022-10-14T09:09:17.924Z,33.50
2022-10-14T09:10:28.640Z,30.13
2022-10-14T09:11:34.398Z,28.05
2022-10-14T09:12:42.833Z,27.77
2022-10-14T09:13:47.923Z,24.55
2022-10-14T09:15:02.397Z,25.05
2022-10-14T09:16:08.898Z,22.02
2022-10-14T09:17:17.457Z,24.33
2022-10-14T09:18:30.788Z,24.92
2022-10-14T09:19:37.476Z,30.63
2022-10-14T09:20:41.102Z,25.00
2022-10-14T09:21:52.670Z,25.13
2022-10-14T09:23:02.727Z,21.70
2022-10-14T09:24:18.411Z,23.20
2022-10-14T09:25:21.466Z,19.75
2022-10-14T09:26:25.928Z,22.25
2022-10-14T09:27:31.918Z,18.33
2022-10-14T09:28:38.627Z,22.15
2022-10-14T09:29:45.314Z,21.45
2022-10-14T09:30:49.876Z,26.52
2022-10-14T09:31:54.527Z,22.50
2022-10-14T09:33:00.111Z,22.53
2022-10-14T09:34:03.013Z,22.23
2022-10-14T09:35:14.982Z,24.58
2022-10-14T09:36:20.905Z,24.40
2022-10-14T09:37:26.558Z,31.77
2022-10-14T09:38:30.657Z,23.55
2022-10-14T09:39:35.755Z,21.27
2022-10-14T09:40:43.004Z,35.00
2022-10-14T09:41:48.486Z,18.65
2022-10-14T09:42:58.640Z,22.85
2022-10-14T09:44:18.719Z,23.92
2022-10-14T09:45:24.943Z,19.35
2022-10-14T09:46:29.463Z,23.55
2022-10-14T09:47:37.736Z,22.38
2022-10-14T09:48:45.437Z,21.30
2022-10-14T09:49:49.067Z,18.35
2022-10-14T09:50:55.084Z,19.08
2022-10-14T09:51:59.067Z,20.23
2022-10-14T09:53:06.967Z,19.63
2022-10-14T09:54:23.926Z,21.02
2022-10-14T09:55:26.853Z,18.80
2022-10-14T09:56:32.613Z,22.90
2022-10-14T09:57:36.705Z,21.98
2022-10-14T09:58:44.636Z,25.48
2022-10-14T09:59:51.526Z,26.13
2022-10-14T10:00:58.314Z,76.20
2022-10-14T10:02:05.614Z,50.95
2022-10-14T10:03:09.905Z,20.55
2022-10-14T10:04:28.943Z,21.73
2022-10-14T10:05:33.457Z,20.25
2022-10-14T10:06:53.184Z,19.50
2022-10-14T10:08:11.324Z,21.75
2022-10-14T10:09:19.048Z,23.27
2022-10-14T10:10:23.703Z,19.85
2022-10-14T10:11:33.588Z,21.52
2022-10-14T10:12:36.614Z,23.42
2022-10-14T10:13:45.053Z,21.17
2022-10-14T10:14:56.785Z,22.17
2022-10-14T10:16:01.821Z,19.92
2022-10-14T10:17:17.896Z,22.85
2022-10-14T10:18:22.494Z,25.23
2022-10-14T10:19:28.776Z,28.77
2022-10-14T10:20:33.597Z,22.48
2022-10-14T10:21:37.070Z,30.55
2022-10-14T10:22:42.054Z,21.48
2022-10-14T10:23:52.991Z,21.30
2022-10-14T10:25:19.356Z,22.30
2022-10-14T10:26:26.804Z,18.52
2022-10-14T10:27:35.415Z,18.90
2022-10-14T10:28:45.634Z,21.48
2022-10-14T10:29:49.837Z,20.98
2022-10-14T10:31:02.686Z,20.95
2022-10-14T10:32:13.898Z,24.13
2022-10-14T10:33:22.704Z,19.55
2022-10-14T10:34:56.766Z,20.05
2022-10-14T10:36:15.539Z,23.67
2022-10-14T10:37:25.543Z,24.65
2022-10-14T10:38:34.893Z,24.33
2022-10-14T10:39:44.041Z,17.75
2022-10-14T10:40:58.694Z,23.97
2022-10-14T10:42:09.276Z,21.58
2022-10-14T10:43:32.549Z,18.73
2022-10-14T10:44:50.571Z,19.88
2022-10-14T10:46:04.980Z,19.00
2022-10-14T10:47:20.823Z,20.60
2022-10-14T10:48:29.323Z,22.65
2022-10-14T10:49:47.387Z,20.33
2022-10-14T10:50:57.845Z,19.83
2022-10-14T10:52:08.839Z,22.45
2022-10-14T10:53:45.259Z,21.10
2022-10-14T10:54:54.176Z,21.27
2022-10-14T10:56:08.974Z,20.23
2022-10-14T10:57:30.446Z,18.77
2022-10-14T10:58:44.441Z,20.23
2022-10-14T10:59:56.421Z,24.23
2022-10-14T11:01:02.119Z,22.27
2022-10-14T11:02:26.290Z,20.75
2022-10-14T11:03:44.510Z,23.38
2022-10-14T11:04:51.548Z,19.38
2022-10-14T11:05:59.619Z,18.13
2022-10-14T11:07:35.377Z,22.27
2022-10-14T11:09:12.053Z,20.13
2022-10-14T11:10:39.229Z,27.33
2022-10-14T11:12:06.710Z,27.02
2022-10-14T11:13:21.584Z,21.27
2022-10-14T11:14:34.184Z,21.45
2022-10-14T11:15:46.324Z,22.00
2022-10-14T11:16:53.573Z,22.55
2022-10-14T11:18:03.119Z,23.85
2022-10-14T11:19:14.622Z,26.05
2022-10-14T11:20:27.909Z,22.35
2022-10-14T11:21:39.366Z,20.48
2022-10-14T11:22:55.947Z,21.25
2022-10-14T11:24:07.988Z,24.58
2022-10-14T11:25:22.963Z,22.25
2022-10-14T11:26:48.143Z,23.15
2022-10-14T11:27:55.566Z,39.72
2022-10-14T11:29:04.658Z,21.95
2022-10-14T11:30:19.609Z,17.73
2022-10-14T11:31:32.380Z,19.73
2022-10-14T11:32:44.738Z,24.02
2022-10-14T11:34:04.056Z,21.50
2022-10-14T11:35:19.358Z,19.73
2022-10-14T11:36:31.728Z,17.83
2022-10-14T11:37:45.722Z,20.67
2022-10-14T11:39:00.417Z,17.15
2022-10-14T11:40:09.374Z,22.30
2022-10-14T11:41:21.561Z,16.50
2022-10-14T11:42:29.849Z,19.23
2022-10-14T11:43:42.159Z,22.57
2022-10-14T11:44:45.136Z,22.83
2022-10-14T11:45:54.658Z,28.33
2022-10-14T11:47:04.733Z,20.80
2022-10-14T11:48:16.877Z,16.67
2022-10-14T11:49:27.337Z,19.60
2022-10-14T11:50:34.675Z,18.90
2022-10-14T11:51:42.229Z,25.60
2022-10-14T11:52:49.278Z,19.60
2022-10-14T11:54:02.558Z,18.87
2022-10-14T11:55:09.810Z,21.80
2022-10-14T11:56:30.085Z,17.57
2022-10-14T11:57:36.855Z,16.83
2022-10-14T11:58:40.877Z,19.90
2022-10-14T12:00:03.296Z,17.00
2022-10-14T12:01:16.478Z,16.83
2022-10-14T12:02:27.110Z,17.77
2022-10-14T12:03:44.778Z,15.17
2022-10-14T12:04:55.623Z,18.60
2022-10-14T12:06:04.491Z,20.40
2022-10-14T12:07:12.758Z,18.23
2022-10-14T12:08:22.817Z,16.20
2022-10-14T12:09:32.571Z,17.37
2022-10-14T12:10:40.183Z,16.23
2022-10-14T12:11:46.220Z,21.20
2022-10-14T12:12:51.363Z,17.00
2022-10-14T12:13:59.369Z,27.53
2022-10-14T12:15:06.834Z,16.27
2022-10-14T12:16:15.105Z,21.47
2022-10-14T12:17:21.680Z,19.47
2022-10-14T12:18:25.945Z,17.20
2022-10-14T12:19:29.959Z,16.50
2022-10-14T12:20:40.020Z,16.07
2022-10-14T12:21:55.097Z,16.27
2022-10-14T12:23:02.638Z,14.63
2022-10-14T12:24:09.484Z,16.60
2022-10-14T12:25:17.608Z,15.23
2022-10-14T12:26:40.330Z,19.87
2022-10-14T12:27:44.469Z,17.10
2022-10-14T12:28:48.914Z,17.43
2022-10-14T12:29:55.880Z,19.47
2022-10-14T12:31:26.057Z,16.37
2022-10-14T12:32:31.459Z,28.30
2022-10-14T12:34:14.854Z,26.23
2022-10-14T12:36:03.630Z,13.87
2022-10-14T12:37:43.395Z,15.00
2022-10-14T12:39:28.181Z,15.93
2022-10-14T12:40:32.808Z,22.00
2022-10-14T12:41:43.886Z,17.03
2022-10-14T12:43:07.439Z,16.97
2022-10-14T12:44:15.521Z,16.33
2022-10-14T12:45:21.742Z,15.07
2022-10-14T12:46:25.955Z,18.23
2022-10-14T12:47:32.376Z,17.17
2022-10-14T12:48:37.427Z,19.03
2022-10-14T12:49:40.456Z,18.07
2022-10-14T12:50:49.869Z,16.70
2022-10-14T12:51:55.829Z,14.77
2022-10-14T12:53:06.986Z,15.67
2022-10-14T12:54:16.544Z,16.03
2022-10-14T12:55:24.712Z,17.23
2022-10-14T12:56:32.206Z,14.23
2022-10-14T12:57:40.226Z,14.60
2022-10-14T12:59:02.653Z,15.40
2022-10-14T13:00:29.105Z,15.30
2022-10-14T13:01:42.668Z,15.90
2022-10-14T13:02:51.890Z,17.60
2022-10-14T13:04:05.298Z,16.40
2022-10-14T13:05:29.050Z,14.87
2022-10-14T13:06:52.858Z,15.07
2022-10-14T13:08:12.635Z,20.03
2022-10-14T13:09:41.125Z,18.87
2022-10-14T13:10:47.501Z,16.33
2022-10-14T13:12:37.617Z,18.33
2022-10-14T13:13:52.915Z,15.43
2022-10-14T13:14:59.507Z,18.13
2022-10-14T13:16:03.867Z,19.08
2022-10-14T13:17:36.194Z,18.48
2022-10-14T13:19:01.026Z,17.83
2022-10-14T13:20:48.242Z,22.65
2022-10-14T13:21:58.581Z,17.00
2022-10-14T13:23:24.095Z,19.15
2022-10-14T13:24:29.746Z,16.90
2022-10-14T13:25:37.940Z,18.02
2022-10-14T13:26:52.446Z,15.70
2022-10-14T13:28:17.463Z,21.13
2022-10-14T13:29:31.586Z,17.58
2022-10-14T13:30:47.235Z,17.43
2022-10-14T13:31:57.956Z,16.98
2022-10-14T13:33:13.484Z,16.20
2022-10-14T13:34:34.579Z,18.30
2022-10-14T13:35:50.569Z,16.63
2022-10-14T13:37:09.060Z,21.65
2022-10-14T13:38:15.478Z,18.13
2022-10-14T13:39:20.391Z,15.80
2022-10-14T13:40:30.359Z,16.87
2022-10-14T13:41:34.875Z,14.30
2022-10-14T13:42:39.517Z,15.27
2022-10-14T13:43:45.017Z,13.30
2022-10-14T13:44:52.781Z,13.77
2022-10-14T13:46:08.108Z,12.57
2022-10-14T13:47:15.906Z,19.27
2022-10-14T13:48:43.348Z,19.70
2022-10-14T13:49:51.761Z,18.23
2022-10-14T13:51:37.086Z,14.97
2022-10-14T13:52:48.806Z,16.77
2022-10-14T13:53:54.845Z,19.33
2022-10-14T13:55:18.965Z,12.73
2022-10-14T13:56:25.996Z,15.30
2022-10-14T13:57:53.967Z,23.73
2022-10-14T13:58:56.404Z,14.80
2022-10-14T14:01:27.975Z,17.77
2022-10-14T14:02:34.258Z,14.57
2022-10-14T14:03:43.686Z,16.52
2022-10-14T14:04:53.655Z,16.40
2022-10-14T14:05:57.214Z,12.07
2022-10-14T14:07:18.681Z,12.17
2022-10-14T14:08:39.799Z,16.73
2022-10-14T14:09:49.537Z,15.52
2022-10-14T14:11:15.787Z,19.60
2022-10-14T14:12:20.758Z,16.40
2022-10-14T14:13:24.395Z,16.17
2022-10-14T14:14:35.076Z,14.07
2022-10-14T14:15:39.088Z,15.63
2022-10-14T14:16:52.561Z,13.15
2022-10-14T14:18:19.426Z,18.90
2022-10-14T14:19:41.727Z,18.35
2022-10-14T14:21:04.530Z,15.05
2022-10-14T14:22:14.149Z,14.40
2022-10-14T14:23:18.392Z,12.05
2022-10-14T14:24:29.660Z,13.55
2022-10-14T14:25:35.449Z,12.85
2022-10-14T14:26:47.216Z,12.97
2022-10-14T14:27:53.557Z,12.77
2022-10-14T14:28:58.765Z,11.88
2022-10-14T14:30:25.318Z,15.23
2022-10-14T14:32:05.151Z,12.45
2022-10-14T14:33:04.941Z,12.57
2022-10-14T14:34:11.774Z,13.30
2022-10-14T14:35:42.784Z,13.40
2022-10-14T14:37:10.948Z,15.82
2022-10-14T14:38:26.285Z,14.50
2022-10-14T14:39:32.038Z,16.52
2022-10-14T14:40:36.104Z,14.27
2022-10-14T14:41:39.139Z,12.25
2022-10-14T14:42:43.587Z,13.10
2022-10-14T14:44:13.757Z,14.77
2022-10-14T14:45:25.818Z,16.95
2022-10-14T14:46:32.867Z,23.75
2022-10-14T14:47:42.126Z,15.80